sensor_id;sensor_type;location;lat;lon;timestamp;pressure;altitude;pressure_sealevel;temperature;humidity
16100;BME280;8154;50.830;12.082;2023-07-29T00:01:59;98791.53;;;25.33;42.50
16100;BME280;8154;50.830;12.082;2023-07-29T00:04:26;98795.06;;;25.27;43.18
16100;BME280;8154;50.830;12.082;2023-07-29T00:06:53;98786.91;;;25.22;43.14
16100;BME280;8154;50.830;12.082;2023-07-29T00:09:20;98780.84;;;25.33;42.89
16100;BME280;8154;50.830;12.082;2023-07-29T00:11:48;98762.59;;;25.24;42.78
16100;BME280;8154;50.830;12.082;2023-07-29T00:14:14;98778.19;;;25.27;43.08
16100;BME280;8154;50.830;12.082;2023-07-29T00:16:41;98779.47;;;25.24;42.97
16100;BME280;8154;50.830;12.082;2023-07-29T00:19:09;98772.41;;;25.30;42.82
16100;BME280;8154;50.830;12.082;2023-07-29T00:21:37;98774.00;;;25.37;42.85
16100;BME280;8154;50.830;12.082;2023-07-29T00:24:04;98752.44;;;25.14;43.10
16100;BME280;8154;50.830;12.082;2023-07-29T00:26:31;98774.34;;;25.23;42.89
16100;BME280;8154;50.830;12.082;2023-07-29T00:28:58;98775.91;;;25.30;43.00
16100;BME280;8154;50.830;12.082;2023-07-29T00:31:27;98767.41;;;25.40;42.88
16100;BME280;8154;50.830;12.082;2023-07-29T00:33:55;98769.50;;;25.49;42.64
16100;BME280;8154;50.830;12.082;2023-07-29T00:36:24;98767.22;;;25.53;42.53
16100;BME280;8154;50.830;12.082;2023-07-29T00:38:52;98766.19;;;25.36;43.04
16100;BME280;8154;50.830;12.082;2023-07-29T00:41:21;98767.88;;;25.30;42.84
16100;BME280;8154;50.830;12.082;2023-07-29T00:43:49;98768.56;;;25.44;43.03
16100;BME280;8154;50.830;12.082;2023-07-29T00:46:16;98753.19;;;25.39;42.85
16100;BME280;8154;50.830;12.082;2023-07-29T00:48:43;98766.00;;;25.31;43.38
16100;BME280;8154;50.830;12.082;2023-07-29T00:51:14;98770.41;;;25.25;43.48
16100;BME280;8154;50.830;12.082;2023-07-29T00:53:41;98768.34;;;25.45;43.25
16100;BME280;8154;50.830;12.082;2023-07-29T00:56:08;98763.53;;;25.54;42.50
16100;BME280;8154;50.830;12.082;2023-07-29T00:58:36;98764.91;;;25.56;42.77
16100;BME280;8154;50.830;12.082;2023-07-29T01:01:03;98764.69;;;25.58;42.58
16100;BME280;8154;50.830;12.082;2023-07-29T01:03:30;98750.59;;;25.33;42.88
16100;BME280;8154;50.830;12.082;2023-07-29T01:09:09;98760.09;;;25.47;42.88
16100;BME280;8154;50.830;12.082;2023-07-29T01:14:32;98763.13;;;25.32;43.14
16100;BME280;8154;50.830;12.082;2023-07-29T01:17:03;98751.41;;;25.33;43.41
16100;BME280;8154;50.830;12.082;2023-07-29T01:22:34;98755.94;;;25.51;42.74
16100;BME280;8154;50.830;12.082;2023-07-29T01:25:01;98756.22;;;25.61;42.54
16100;BME280;8154;50.830;12.082;2023-07-29T01:27:28;98756.59;;;25.46;43.15
16100;BME280;8154;50.830;12.082;2023-07-29T01:29:58;98753.91;;;25.28;43.24
16100;BME280;8154;50.830;12.082;2023-07-29T01:32:36;98761.28;;;25.33;43.21
16100;BME280;8154;50.830;12.082;2023-07-29T01:37:34;98740.31;;;25.30;42.97
16100;BME280;8154;50.830;12.082;2023-07-29T01:40:05;98765.28;;;25.24;43.01
16100;BME280;8154;50.830;12.082;2023-07-29T01:42:34;98759.84;;;25.30;43.11
16100;BME280;8154;50.830;12.082;2023-07-29T01:45:01;98756.00;;;25.44;42.47
16100;BME280;8154;50.830;12.082;2023-07-29T01:47:28;98763.50;;;25.36;42.85
16100;BME280;8154;50.830;12.082;2023-07-29T01:49:55;98735.28;;;25.04;42.62
16100;BME280;8154;50.830;12.082;2023-07-29T01:52:21;98759.25;;;25.28;42.88
16100;BME280;8154;50.830;12.082;2023-07-29T01:54:48;98763.91;;;25.39;42.47
16100;BME280;8154;50.830;12.082;2023-07-29T01:57:15;98762.75;;;25.47;42.60
16100;BME280;8154;50.830;12.082;2023-07-29T01:59:42;98765.81;;;25.50;42.63
16100;BME280;8154;50.830;12.082;2023-07-29T02:02:08;98760.91;;;25.47;42.73
16100;BME280;8154;50.830;12.082;2023-07-29T02:04:35;98754.72;;;25.29;42.86
16100;BME280;8154;50.830;12.082;2023-07-29T02:07:01;98765.06;;;25.25;42.92
16100;BME280;8154;50.830;12.082;2023-07-29T02:09:27;98755.03;;;25.39;42.95
16100;BME280;8154;50.830;12.082;2023-07-29T02:11:53;98764.84;;;25.45;43.04
16100;BME280;8154;50.830;12.082;2023-07-29T02:14:20;98761.09;;;25.28;43.22
16100;BME280;8154;50.830;12.082;2023-07-29T02:16:46;98760.38;;;25.21;43.00
16100;BME280;8154;50.830;12.082;2023-07-29T02:19:12;98765.41;;;25.35;42.76
16100;BME280;8154;50.830;12.082;2023-07-29T02:21:39;98761.16;;;25.46;42.76
16100;BME280;8154;50.830;12.082;2023-07-29T02:24:06;98753.69;;;25.48;42.42
16100;BME280;8154;50.830;12.082;2023-07-29T02:26:33;98761.06;;;25.52;42.69
16100;BME280;8154;50.830;12.082;2023-07-29T02:28:59;98751.41;;;25.33;42.91
16100;BME280;8154;50.830;12.082;2023-07-29T02:31:25;98755.63;;;25.23;43.35
16100;BME280;8154;50.830;12.082;2023-07-29T02:33:51;98736.09;;;25.22;43.75
16100;BME280;8154;50.830;12.082;2023-07-29T02:36:18;98749.25;;;25.42;43.07
16100;BME280;8154;50.830;12.082;2023-07-29T02:38:44;98744.56;;;25.37;43.10
16100;BME280;8154;50.830;12.082;2023-07-29T02:41:11;98755.41;;;25.42;42.88
16100;BME280;8154;50.830;12.082;2023-07-29T02:43:42;98750.19;;;25.29;43.16
16100;BME280;8154;50.830;12.082;2023-07-29T02:46:09;98752.13;;;25.22;43.43
16100;BME280;8154;50.830;12.082;2023-07-29T02:48:35;98750.59;;;25.33;43.59
16100;BME280;8154;50.830;12.082;2023-07-29T02:51:02;98742.50;;;25.39;43.47
16100;BME280;8154;50.830;12.082;2023-07-29T02:53:28;98745.78;;;25.41;43.44
16100;BME280;8154;50.830;12.082;2023-07-29T02:55:54;98750.22;;;25.47;43.55
16100;BME280;8154;50.830;12.082;2023-07-29T02:58:21;98750.13;;;25.36;43.74
16100;BME280;8154;50.830;12.082;2023-07-29T03:00:48;98762.16;;;25.27;43.74
16100;BME280;8154;50.830;12.082;2023-07-29T03:03:14;98753.09;;;25.28;43.81
16100;BME280;8154;50.830;12.082;2023-07-29T03:05:42;98736.69;;;25.24;43.33
16100;BME280;8154;50.830;12.082;2023-07-29T03:08:08;98744.22;;;25.34;43.25
16100;BME280;8154;50.830;12.082;2023-07-29T03:10:35;98749.69;;;25.39;43.37
16100;BME280;8154;50.830;12.082;2023-07-29T03:13:02;98741.13;;;25.30;43.71
16100;BME280;8154;50.830;12.082;2023-07-29T03:15:28;98757.63;;;25.45;43.04
16100;BME280;8154;50.830;12.082;2023-07-29T03:17:55;98746.00;;;25.40;43.44
16100;BME280;8154;50.830;12.082;2023-07-29T03:20:21;98751.47;;;25.27;43.87
16100;BME280;8154;50.830;12.082;2023-07-29T03:22:47;98740.97;;;25.25;43.56
16100;BME280;8154;50.830;12.082;2023-07-29T03:25:13;98738.88;;;25.34;43.30
16100;BME280;8154;50.830;12.082;2023-07-29T03:27:40;98744.84;;;25.29;43.80
16100;BME280;8154;50.830;12.082;2023-07-29T03:30:06;98739.22;;;25.19;44.09
16100;BME280;8154;50.830;12.082;2023-07-29T03:32:33;98731.91;;;25.26;43.86
16100;BME280;8154;50.830;12.082;2023-07-29T03:35:00;98737.81;;;25.35;43.88
16100;BME280;8154;50.830;12.082;2023-07-29T03:37:27;98735.28;;;25.40;43.41
16100;BME280;8154;50.830;12.082;2023-07-29T03:39:53;98728.44;;;25.44;43.67
16100;BME280;8154;50.830;12.082;2023-07-29T03:42:19;98732.41;;;25.41;43.78
16100;BME280;8154;50.830;12.082;2023-07-29T03:44:45;98721.44;;;25.25;43.93
16100;BME280;8154;50.830;12.082;2023-07-29T03:47:11;98721.22;;;25.26;43.81
16100;BME280;8154;50.830;12.082;2023-07-29T03:49:38;98727.84;;;25.42;43.71
16100;BME280;8154;50.830;12.082;2023-07-29T03:52:05;98721.00;;;25.46;43.31
16100;BME280;8154;50.830;12.082;2023-07-29T03:54:31;98726.78;;;25.61;43.07
16100;BME280;8154;50.830;12.082;2023-07-29T03:56:58;98722.69;;;25.58;43.36
16100;BME280;8154;50.830;12.082;2023-07-29T03:59:24;98722.59;;;25.35;43.80
16100;BME280;8154;50.830;12.082;2023-07-29T04:01:50;98695.16;;;25.04;44.10
16100;BME280;8154;50.830;12.082;2023-07-29T04:04:16;98725.69;;;25.32;43.66
16100;BME280;8154;50.830;12.082;2023-07-29T04:06:43;98721.25;;;25.44;42.96
16100;BME280;8154;50.830;12.082;2023-07-29T04:09:09;98730.44;;;25.48;43.14
16100;BME280;8154;50.830;12.082;2023-07-29T04:11:38;98723.38;;;25.54;43.02
16100;BME280;8154;50.830;12.082;2023-07-29T04:14:04;98726.63;;;25.56;43.08
16100;BME280;8154;50.830;12.082;2023-07-29T04:16:30;98730.13;;;25.56;43.07
16100;BME280;8154;50.830;12.082;2023-07-29T04:18:57;98722.16;;;25.38;43.13
16100;BME280;8154;50.830;12.082;2023-07-29T04:21:23;98716.47;;;25.28;43.31
16100;BME280;8154;50.830;12.082;2023-07-29T04:23:49;98709.78;;;25.37;43.17
16100;BME280;8154;50.830;12.082;2023-07-29T04:26:16;98713.44;;;25.43;43.31
16100;BME280;8154;50.830;12.082;2023-07-29T04:28:42;98712.63;;;25.42;43.39
16100;BME280;8154;50.830;12.082;2023-07-29T04:31:08;98710.63;;;25.38;43.35
16100;BME280;8154;50.830;12.082;2023-07-29T04:33:35;98694.81;;;25.18;43.43
16100;BME280;8154;50.830;12.082;2023-07-29T04:36:01;98719.13;;;25.28;43.41
16100;BME280;8154;50.830;12.082;2023-07-29T04:38:33;98716.91;;;25.25;43.67
16100;BME280;8154;50.830;12.082;2023-07-29T04:40:59;98705.38;;;25.25;43.52
16100;BME280;8154;50.830;12.082;2023-07-29T04:43:31;98695.97;;;25.22;43.17
16100;BME280;8154;50.830;12.082;2023-07-29T04:45:58;98699.69;;;25.21;43.45
16100;BME280;8154;50.830;12.082;2023-07-29T04:48:24;98699.25;;;25.24;43.64
16100;BME280;8154;50.830;12.082;2023-07-29T04:50:50;98697.38;;;25.25;43.72
16100;BME280;8154;50.830;12.082;2023-07-29T04:53:17;98701.91;;;25.24;43.56
16100;BME280;8154;50.830;12.082;2023-07-29T04:55:43;98683.28;;;25.18;43.71
16100;BME280;8154;50.830;12.082;2023-07-29T04:58:13;98691.91;;;25.20;43.52
16100;BME280;8154;50.830;12.082;2023-07-29T05:00:39;98692.69;;;25.20;43.68
16100;BME280;8154;50.830;12.082;2023-07-29T05:03:06;98701.16;;;25.17;43.61
16100;BME280;8154;50.830;12.082;2023-07-29T05:05:32;98699.09;;;25.19;43.54
16100;BME280;8154;50.830;12.082;2023-07-29T05:07:59;98708.75;;;25.20;43.63
16100;BME280;8154;50.830;12.082;2023-07-29T05:10:25;98695.59;;;25.19;43.47
16100;BME280;8154;50.830;12.082;2023-07-29T05:12:51;98714.09;;;25.20;43.31
16100;BME280;8154;50.830;12.082;2023-07-29T05:15:18;98716.19;;;25.18;43.53
16100;BME280;8154;50.830;12.082;2023-07-29T05:17:47;98720.13;;;25.16;43.58
16100;BME280;8154;50.830;12.082;2023-07-29T05:20:14;98712.25;;;25.21;44.03
16100;BME280;8154;50.830;12.082;2023-07-29T05:22:40;98709.56;;;25.21;43.95
16100;BME280;8154;50.830;12.082;2023-07-29T05:25:08;98684.69;;;25.02;44.04
16100;BME280;8154;50.830;12.082;2023-07-29T05:27:35;98726.44;;;25.21;43.91
16100;BME280;8154;50.830;12.082;2023-07-29T05:30:01;98716.09;;;25.25;44.12
16100;BME280;8154;50.830;12.082;2023-07-29T05:32:27;98718.53;;;25.26;44.34
16100;BME280;8154;50.830;12.082;2023-07-29T05:34:54;98715.41;;;25.29;44.35
16100;BME280;8154;50.830;12.082;2023-07-29T05:37:20;98715.28;;;25.24;44.16
16100;BME280;8154;50.830;12.082;2023-07-29T05:39:46;98720.63;;;25.24;44.41
16100;BME280;8154;50.830;12.082;2023-07-29T05:42:12;98717.66;;;25.32;44.86
16100;BME280;8154;50.830;12.082;2023-07-29T05:44:39;98717.66;;;25.32;44.41
16100;BME280;8154;50.830;12.082;2023-07-29T05:47:06;98721.00;;;25.28;44.06
16100;BME280;8154;50.830;12.082;2023-07-29T05:49:36;98722.41;;;25.30;44.58
16100;BME280;8154;50.830;12.082;2023-07-29T05:52:02;98733.28;;;25.35;44.65
16100;BME280;8154;50.830;12.082;2023-07-29T05:54:28;98732.47;;;25.35;44.83
16100;BME280;8154;50.830;12.082;2023-07-29T05:56:55;98726.28;;;25.34;44.60
16100;BME280;8154;50.830;12.082;2023-07-29T05:59:21;98729.34;;;25.38;44.54
16100;BME280;8154;50.830;12.082;2023-07-29T06:01:48;98715.13;;;25.37;44.81
16100;BME280;8154;50.830;12.082;2023-07-29T06:04:17;98723.38;;;25.36;44.77
16100;BME280;8154;50.830;12.082;2023-07-29T06:06:44;98716.00;;;25.31;44.76
16100;BME280;8154;50.830;12.082;2023-07-29T06:09:10;98722.16;;;25.38;45.04
16100;BME280;8154;50.830;12.082;2023-07-29T06:11:37;98718.66;;;25.38;44.66
16100;BME280;8154;50.830;12.082;2023-07-29T06:14:03;98715.13;;;25.37;44.47
16100;BME280;8154;50.830;12.082;2023-07-29T06:16:30;98692.38;;;25.28;44.87
16100;BME280;8154;50.830;12.082;2023-07-29T06:18:57;98713.66;;;25.41;44.72
16100;BME280;8154;50.830;12.082;2023-07-29T06:21:24;98709.09;;;25.42;45.02
16100;BME280;8154;50.830;12.082;2023-07-29T06:23:54;98723.53;;;25.41;45.06
16100;BME280;8154;50.830;12.082;2023-07-29T06:26:20;98713.22;;;25.44;45.01
16100;BME280;8154;50.830;12.082;2023-07-29T06:28:47;98709.94;;;25.42;44.61
16100;BME280;8154;50.830;12.082;2023-07-29T06:31:15;98716.13;;;25.43;44.59
16100;BME280;8154;50.830;12.082;2023-07-29T06:33:41;98719.81;;;25.42;44.39
16100;BME280;8154;50.830;12.082;2023-07-29T06:36:07;98712.47;;;25.37;44.50
16100;BME280;8154;50.830;12.082;2023-07-29T06:38:34;98709.09;;;25.42;44.75
16100;BME280;8154;50.830;12.082;2023-07-29T06:41:00;98703.41;;;25.38;44.65
16100;BME280;8154;50.830;12.082;2023-07-29T06:43:27;98709.56;;;25.39;44.87
16100;BME280;8154;50.830;12.082;2023-07-29T06:45:53;98709.72;;;25.44;44.91
16100;BME280;8154;50.830;12.082;2023-07-29T06:48:20;98706.81;;;25.45;44.89
16100;BME280;8154;50.830;12.082;2023-07-29T06:50:46;98697.72;;;25.46;44.85
16100;BME280;8154;50.830;12.082;2023-07-29T06:53:14;98694.03;;;25.47;44.56
16100;BME280;8154;50.830;12.082;2023-07-29T06:55:44;98692.16;;;25.48;45.04
16100;BME280;8154;50.830;12.082;2023-07-29T06:58:11;98685.78;;;25.49;45.28
16100;BME280;8154;50.830;12.082;2023-07-29T07:00:37;98679.59;;;25.48;45.17
16100;BME280;8154;50.830;12.082;2023-07-29T07:03:05;98668.19;;;25.41;45.11
16100;BME280;8154;50.830;12.082;2023-07-29T07:05:32;98676.31;;;25.46;44.78
16100;BME280;8154;50.830;12.082;2023-07-29T07:07:59;98661.94;;;25.47;44.87
16100;BME280;8154;50.830;12.082;2023-07-29T07:10:25;98634.91;;;25.37;44.65
16100;BME280;8154;50.830;12.082;2023-07-29T07:12:52;98651.22;;;25.47;44.66
16100;BME280;8154;50.830;12.082;2023-07-29T07:15:19;98646.56;;;25.43;44.75
16100;BME280;8154;50.830;12.082;2023-07-29T07:17:46;98637.94;;;25.41;44.74
16100;BME280;8154;50.830;12.082;2023-07-29T07:20:16;98653.31;;;25.45;44.63
16100;BME280;8154;50.830;12.082;2023-07-29T07:22:43;98674.84;;;25.50;44.62
16100;BME280;8154;50.830;12.082;2023-07-29T07:25:15;98670.09;;;25.52;44.63
16100;BME280;8154;50.830;12.082;2023-07-29T07:27:42;98668.22;;;25.53;44.70
16100;BME280;8154;50.830;12.082;2023-07-29T07:30:09;98666.81;;;25.50;44.56
16100;BME280;8154;50.830;12.082;2023-07-29T07:32:35;98669.50;;;25.50;44.52
16100;BME280;8154;50.830;12.082;2023-07-29T07:35:02;98674.41;;;25.53;44.57
16100;BME280;8154;50.830;12.082;2023-07-29T07:37:35;98674.25;;;25.48;44.51
16100;BME280;8154;50.830;12.082;2023-07-29T07:40:08;98657.03;;;25.44;44.23
16100;BME280;8154;50.830;12.082;2023-07-29T07:42:34;98670.66;;;25.54;44.39
16100;BME280;8154;50.830;12.082;2023-07-29T07:45:02;98671.50;;;25.55;44.34
16100;BME280;8154;50.830;12.082;2023-07-29T07:47:29;98670.66;;;25.54;44.15
16100;BME280;8154;50.830;12.082;2023-07-29T07:49:56;98665.53;;;25.53;44.57
16100;BME280;8154;50.830;12.082;2023-07-29T07:52:25;98646.03;;;25.34;44.46
16100;BME280;8154;50.830;12.082;2023-07-29T07:54:52;98673.19;;;25.49;44.52
16100;BME280;8154;50.830;12.082;2023-07-29T07:57:21;98669.72;;;25.49;44.62
16100;BME280;8154;50.830;12.082;2023-07-29T07:59:48;98679.97;;;25.52;45.23
16100;BME280;8154;50.830;12.082;2023-07-29T08:02:14;98668.44;;;25.51;44.96
16100;BME280;8154;50.830;12.082;2023-07-29T08:04:41;98676.94;;;25.48;44.56
16100;BME280;8154;50.830;12.082;2023-07-29T08:07:07;98670.97;;;25.46;44.09
16100;BME280;8154;50.830;12.082;2023-07-29T08:09:33;98670.31;;;25.51;44.57
16100;BME280;8154;50.830;12.082;2023-07-29T08:12:00;98645.50;;;25.44;44.62
16100;BME280;8154;50.830;12.082;2023-07-29T08:14:27;98661.00;;;25.53;44.54
16100;BME280;8154;50.830;12.082;2023-07-29T08:16:53;98661.47;;;25.50;44.63
16100;BME280;8154;50.830;12.082;2023-07-29T08:19:20;98662.41;;;25.56;44.55
16100;BME280;8154;50.830;12.082;2023-07-29T08:21:47;98661.38;;;25.57;44.20
16100;BME280;8154;50.830;12.082;2023-07-29T08:24:14;98670.56;;;25.61;44.28
16100;BME280;8154;50.830;12.082;2023-07-29T08:26:40;98658.81;;;25.62;44.69
16100;BME280;8154;50.830;12.082;2023-07-29T08:29:07;98655.91;;;25.63;44.44
16100;BME280;8154;50.830;12.082;2023-07-29T08:31:33;98663.59;;;25.60;44.51
16100;BME280;8154;50.830;12.082;2023-07-29T08:34:03;98638.66;;;25.48;44.76
16100;BME280;8154;50.830;12.082;2023-07-29T08:36:29;98654.38;;;25.56;44.95
16100;BME280;8154;50.830;12.082;2023-07-29T08:38:56;98666.72;;;25.57;44.89
16100;BME280;8154;50.830;12.082;2023-07-29T08:41:29;98669.97;;;25.59;44.73
16100;BME280;8154;50.830;12.082;2023-07-29T08:44:12;98674.06;;;25.61;44.54
16100;BME280;8154;50.830;12.082;2023-07-29T08:46:43;98677.78;;;25.60;44.60
16100;BME280;8154;50.830;12.082;2023-07-29T08:49:11;98671.50;;;25.55;44.73
16100;BME280;8154;50.830;12.082;2023-07-29T08:51:42;98682.56;;;25.58;44.60
16100;BME280;8154;50.830;12.082;2023-07-29T08:54:10;98680.44;;;25.60;44.66
16100;BME280;8154;50.830;12.082;2023-07-29T08:56:37;98690.94;;;25.62;44.43
16100;BME280;8154;50.830;12.082;2023-07-29T08:59:04;98690.38;;;25.60;44.42
16100;BME280;8154;50.830;12.082;2023-07-29T09:01:32;98658.06;;;25.43;44.38
16100;BME280;8154;50.830;12.082;2023-07-29T09:03:59;98675.44;;;25.52;44.54
16100;BME280;8154;50.830;12.082;2023-07-29T09:06:25;98685.00;;;25.60;44.76
16100;BME280;8154;50.830;12.082;2023-07-29T09:08:54;98682.09;;;25.61;44.78
16100;BME280;8154;50.830;12.082;2023-07-29T09:11:23;98681.06;;;25.62;44.76
16100;BME280;8154;50.830;12.082;2023-07-29T09:13:49;98667.41;;;25.52;44.45
16100;BME280;8154;50.830;12.082;2023-07-29T09:16:17;98677.78;;;25.60;44.41
16100;BME280;8154;50.830;12.082;2023-07-29T09:18:52;98668.34;;;25.58;44.40
16100;BME280;8154;50.830;12.082;2023-07-29T09:21:25;98668.91;;;25.48;44.39
16100;BME280;8154;50.830;12.082;2023-07-29T09:23:53;98668.81;;;25.55;44.37
16100;BME280;8154;50.830;12.082;2023-07-29T09:26:27;98669.28;;;25.52;44.09
16100;BME280;8154;50.830;12.082;2023-07-29T09:28:56;98681.38;;;25.54;44.18
16100;BME280;8154;50.830;12.082;2023-07-29T09:31:42;98672.31;;;25.55;44.25
16100;BME280;8154;50.830;12.082;2023-07-29T09:34:19;98637.94;;;25.41;43.87
16100;BME280;8154;50.830;12.082;2023-07-29T09:36:50;98664.84;;;25.57;44.22
16100;BME280;8154;50.830;12.082;2023-07-29T09:39:18;98677.44;;;25.57;43.76
16100;BME280;8154;50.830;12.082;2023-07-29T09:41:48;98672.88;;;25.57;44.02
16100;BME280;8154;50.830;12.082;2023-07-29T09:44:15;98671.25;;;25.56;43.97
16100;BME280;8154;50.830;12.082;2023-07-29T09:46:46;98668.34;;;25.58;44.21
16100;BME280;8154;50.830;12.082;2023-07-29T09:49:13;98666.28;;;25.60;44.25
16100;BME280;8154;50.830;12.082;2023-07-29T09:51:40;98668.72;;;25.61;44.38
16100;BME280;8154;50.830;12.082;2023-07-29T09:54:07;98670.22;;;25.57;44.32
16100;BME280;8154;50.830;12.082;2023-07-29T09:56:41;98667.19;;;25.54;44.21
16100;BME280;8154;50.830;12.082;2023-07-29T09:59:09;98672.66;;;25.59;44.06
16100;BME280;8154;50.830;12.082;2023-07-29T10:01:37;98674.53;;;25.58;44.31
16100;BME280;8154;50.830;12.082;2023-07-29T10:04:05;98664.38;;;25.49;43.99
16100;BME280;8154;50.830;12.082;2023-07-29T10:06:34;98678.13;;;25.52;44.26
16100;BME280;8154;50.830;12.082;2023-07-29T10:09:04;98679.97;;;25.52;44.15
16100;BME280;8154;50.830;12.082;2023-07-29T10:11:35;98665.63;;;25.46;44.07
16100;BME280;8154;50.830;12.082;2023-07-29T10:14:03;98678.47;;;25.56;44.09
16100;BME280;8154;50.830;12.082;2023-07-29T10:16:32;98666.00;;;25.50;43.92
16100;BME280;8154;50.830;12.082;2023-07-29T10:19:05;98670.22;;;25.57;44.04
16100;BME280;8154;50.830;12.082;2023-07-29T10:21:39;98666.50;;;25.58;44.19
16100;BME280;8154;50.830;12.082;2023-07-29T10:24:14;98676.75;;;25.61;44.15
16100;BME280;8154;50.830;12.082;2023-07-29T10:26:47;98665.00;;;25.62;44.22
16100;BME280;8154;50.830;12.082;2023-07-29T10:29:19;98674.31;;;25.60;44.18
16100;BME280;8154;50.830;12.082;2023-07-29T10:31:48;98663.72;;;25.65;44.16
16100;BME280;8154;50.830;12.082;2023-07-29T10:34:22;98647.63;;;25.53;44.65
16100;BME280;8154;50.830;12.082;2023-07-29T10:36:50;98668.84;;;25.66;44.37
16100;BME280;8154;50.830;12.082;2023-07-29T10:39:19;98666.63;;;25.63;44.06
16100;BME280;8154;50.830;12.082;2023-07-29T10:42:01;98671.31;;;25.68;44.06
16100;BME280;8154;50.830;12.082;2023-07-29T10:47:23;98665.44;;;25.59;44.80
16100;BME280;8154;50.830;12.082;2023-07-29T10:49:57;98660.25;;;25.64;44.75
16100;BME280;8154;50.830;12.082;2023-07-29T10:54:59;98658.72;;;25.68;44.80
16100;BME280;8154;50.830;12.082;2023-07-29T11:00:09;98660.69;;;25.61;44.69
16100;BME280;8154;50.830;12.082;2023-07-29T11:02:38;98657.34;;;25.66;44.90
16100;BME280;8154;50.830;12.082;2023-07-29T11:05:27;98663.84;;;25.70;44.27
16100;BME280;8154;50.830;12.082;2023-07-29T11:07:52;98664.78;;;25.64;44.62
16100;BME280;8154;50.830;12.082;2023-07-29T11:10:20;98665.97;;;25.68;44.42
16100;BME280;8154;50.830;12.082;2023-07-29T11:12:51;98651.16;;;25.65;44.59
16100;BME280;8154;50.830;12.082;2023-07-29T11:15:26;98640.69;;;25.64;44.70
16100;BME280;8154;50.830;12.082;2023-07-29T11:18:01;98637.41;;;25.62;44.66
16100;BME280;8154;50.830;12.082;2023-07-29T11:20:29;98626.03;;;25.66;44.31
16100;BME280;8154;50.830;12.082;2023-07-29T11:23:01;98631.38;;;25.66;44.36
16100;BME280;8154;50.830;12.082;2023-07-29T11:25:30;98638.00;;;25.64;44.84
16100;BME280;8154;50.830;12.082;2023-07-29T11:27:59;98625.00;;;25.67;45.01
16100;BME280;8154;50.830;12.082;2023-07-29T11:30:27;98624.41;;;25.65;44.87
16100;BME280;8154;50.830;12.082;2023-07-29T11:32:57;98641.41;;;25.71;44.91
16100;BME280;8154;50.830;12.082;2023-07-29T11:35:24;98628.03;;;25.71;45.17
16100;BME280;8154;50.830;12.082;2023-07-29T11:37:54;98635.69;;;25.67;45.04
16100;BME280;8154;50.830;12.082;2023-07-29T11:40:22;98629.50;;;25.67;45.15
16100;BME280;8154;50.830;12.082;2023-07-29T11:42:58;98632.19;;;25.67;45.49
16100;BME280;8154;50.830;12.082;2023-07-29T11:45:31;98639.53;;;25.71;45.25
16100;BME280;8154;50.830;12.082;2023-07-29T11:48:03;98631.28;;;25.73;44.87
16100;BME280;8154;50.830;12.082;2023-07-29T11:50:32;98632.78;;;25.69;44.90
16100;BME280;8154;50.830;12.082;2023-07-29T11:53:03;98644.88;;;25.71;44.69
16100;BME280;8154;50.830;12.082;2023-07-29T11:55:33;98636.06;;;25.71;45.20
16100;BME280;8154;50.830;12.082;2023-07-29T11:58:05;98645.94;;;25.70;45.21
16100;BME280;8154;50.830;12.082;2023-07-29T12:00:33;98634.41;;;25.70;45.29
16100;BME280;8154;50.830;12.082;2023-07-29T12:03:02;98644.31;;;25.69;45.30
16100;BME280;8154;50.830;12.082;2023-07-29T12:05:30;98622.53;;;25.66;44.91
16100;BME280;8154;50.830;12.082;2023-07-29T12:07:59;98628.25;;;25.69;44.69
16100;BME280;8154;50.830;12.082;2023-07-29T12:10:34;98622.91;;;25.69;44.95
16100;BME280;8154;50.830;12.082;2023-07-29T12:13:08;98629.28;;;25.68;44.91
16100;BME280;8154;50.830;12.082;2023-07-29T12:15:38;98620.47;;;25.68;44.86
16100;BME280;8154;50.830;12.082;2023-07-29T12:18:05;98625.59;;;25.69;44.53
16100;BME280;8154;50.830;12.082;2023-07-29T12:20:32;98595.50;;;25.56;44.11
16100;BME280;8154;50.830;12.082;2023-07-29T12:23:00;98607.97;;;25.62;44.46
16100;BME280;8154;50.830;12.082;2023-07-29T12:25:32;98619.19;;;25.70;44.12
16100;BME280;8154;50.830;12.082;2023-07-29T12:28:07;98606.13;;;25.62;44.46
16100;BME280;8154;50.830;12.082;2023-07-29T12:30:40;98608.47;;;25.70;44.21
16100;BME280;8154;50.830;12.082;2023-07-29T12:33:07;98606.84;;;25.69;44.44
16100;BME280;8154;50.830;12.082;2023-07-29T12:35:36;98615.44;;;25.71;44.28
16100;BME280;8154;50.830;12.082;2023-07-29T12:38:03;98596.72;;;25.71;43.96
16100;BME280;8154;50.830;12.082;2023-07-29T12:40:30;98614.66;;;25.71;44.11
16100;BME280;8154;50.830;12.082;2023-07-29T12:42:57;98592.88;;;25.67;43.77
16100;BME280;8154;50.830;12.082;2023-07-29T12:45:24;98593.56;;;25.74;44.09
16100;BME280;8154;50.830;12.082;2023-07-29T12:47:56;98588.22;;;25.74;44.26
16100;BME280;8154;50.830;12.082;2023-07-29T12:50:24;98581.84;;;25.75;43.89
16100;BME280;8154;50.830;12.082;2023-07-29T12:52:51;98573.00;;;25.75;43.92
16100;BME280;8154;50.830;12.082;2023-07-29T12:55:19;98571.69;;;25.77;43.84
16100;BME280;8154;50.830;12.082;2023-07-29T12:57:46;98569.03;;;25.77;43.85
16100;BME280;8154;50.830;12.082;2023-07-29T13:00:12;98575.19;;;25.78;44.19
16100;BME280;8154;50.830;12.082;2023-07-29T13:02:39;98570.66;;;25.78;43.94
16100;BME280;8154;50.830;12.082;2023-07-29T13:05:10;98575.44;;;25.76;44.05
16100;BME280;8154;50.830;12.082;2023-07-29T13:07:42;98576.25;;;25.77;44.05
16100;BME280;8154;50.830;12.082;2023-07-29T13:10:10;98568.09;;;25.72;43.89
16100;BME280;8154;50.830;12.082;2023-07-29T13:12:37;98564.50;;;25.78;43.66
16100;BME280;8154;50.830;12.082;2023-07-29T13:15:05;98572.41;;;25.73;43.65
16100;BME280;8154;50.830;12.082;2023-07-29T13:17:33;98577.06;;;25.77;43.53
16100;BME280;8154;50.830;12.082;2023-07-29T13:20:00;98565.28;;;25.67;43.87
16100;BME280;8154;50.830;12.082;2023-07-29T13:22:27;98555.88;;;25.76;43.46
16100;BME280;8154;50.830;12.082;2023-07-29T13:24:53;98556.22;;;25.79;43.57